Air Quality Table

TIMESTAMP NO2 O3 PM2.5 TEMP HUM AIRPRES WS WD NO
2022-01-24 17:00 N/A 72.56 µg/m3 2.07 µg/m3 12.57 °C N/A 1,012.82 mbar 2.09 m/s 56.74 Deg N/A
2022-01-24 09:00 N/A 50.77 µg/m3 3.11 µg/m3 9.3 °C N/A 1,013.83 mbar 0.73 m/s 256.77 Deg N/A
2022-01-24 01:00 N/A 69.01 µg/m3 2.62 µg/m3 10.84 °C N/A 1,014.52 mbar 0.84 m/s 278.53 Deg N/A
2022-01-23 17:00 N/A 78.32 µg/m3 1.5 µg/m3 12.91 °C N/A 1,015.43 mbar 1.72 m/s 94.04 Deg N/A
2022-01-23 09:00 N/A 67.07 µg/m3 1.55 µg/m3 10 °C N/A 1,014.46 mbar 1.24 m/s 117.54 Deg N/A
2022-01-23 01:00 N/A 26.93 µg/m3 9.31 µg/m3 9.89 °C N/A 1,012.78 mbar 0.79 m/s 228.51 Deg N/A
2022-01-22 17:00 N/A 72.87 µg/m3 2.43 µg/m3 13.02 °C N/A 1,011.04 mbar 1.88 m/s 108.58 Deg N/A
2022-01-22 09:00 N/A 69.41 µg/m3 2.46 µg/m3 10.92 °C N/A 1,009.99 mbar 1.12 m/s 332.09 Deg N/A
2022-01-22 01:00 N/A 75.14 µg/m3 2.74 µg/m3 11.86 °C N/A 1,010.14 mbar 1.01 m/s 317.42 Deg N/A
2022-01-21 17:00 N/A 82.18 µg/m3 4.78 µg/m3 14.45 °C N/A 1,009.78 mbar 1.81 m/s 315.12 Deg N/A
2022-01-21 09:00 N/A 70.72 µg/m3 6.52 µg/m3 11.12 °C N/A 1,010.29 mbar 0.98 m/s 297.47 Deg N/A
2022-01-21 01:00 N/A 63.58 µg/m3 7.93 µg/m3 11.61 °C N/A 1,012.07 mbar 0.77 m/s 296.63 Deg N/A
2022-01-20 17:00 N/A 73.18 µg/m3 5.98 µg/m3 14.35 °C N/A 1,013.53 mbar 1.2 m/s 314.57 Deg N/A
2022-01-20 09:00 N/A 37.52 µg/m3 5.86 µg/m3 10.32 °C N/A 1,015.79 mbar 0.63 m/s 279.86 Deg N/A
2022-01-20 01:00 N/A 43.81 µg/m3 8.71 µg/m3 11.3 °C N/A 1,017.79 mbar 0.72 m/s 231.94 Deg N/A
2022-01-19 17:00 N/A 60.94 µg/m3 10.43 µg/m3 14.14 °C N/A 1,018.61 mbar 1.7 m/s 191.31 Deg N/A
2022-01-19 09:00 N/A 39.38 µg/m3 5.84 µg/m3 10.99 °C N/A 1,018.90 mbar 0.36 m/s 308.85 Deg N/A
2022-01-19 01:00 N/A 46.09 µg/m3 11.09 µg/m3 10.58 °C N/A 1,019.25 mbar 0.37 m/s 292.82 Deg N/A
2022-01-18 17:00 N/A 78.21 µg/m3 3.35 µg/m3 14.19 °C N/A 1,017.59 mbar 1.72 m/s 119.3 Deg N/A
2022-01-18 09:00 N/A 62.6 µg/m3 2.22 µg/m3 11.05 °C N/A 1,015.60 mbar 0.7 m/s 327.79 Deg N/A
2022-01-18 01:00 N/A 79.77 µg/m3 2.72 µg/m3 12.48 °C N/A 1,014.41 mbar 1.2 m/s 334.49 Deg N/A
2022-01-17 17:00 N/A 80.77 µg/m3 3.8 µg/m3 14.44 °C N/A 1,014.25 mbar 1.72 m/s 330.56 Deg N/A
2022-01-17 09:00 N/A 61.13 µg/m3 2.5 µg/m3 11.45 °C N/A 1,015.04 mbar 0.63 m/s 332.71 Deg N/A
2022-01-17 01:00 N/A 51.18 µg/m3 9.2 µg/m3 11.62 °C N/A 1,015.01 mbar 0.44 m/s 317.81 Deg N/A
2022-01-16 17:00 N/A 73.94 µg/m3 4.31 µg/m3 15.92 °C N/A 1,013.46 mbar 0.87 m/s 224.9 Deg N/A
2022-01-16 09:00 N/A 27.88 µg/m3 3.26 µg/m3 8.54 °C N/A 1,012.17 mbar 0.53 m/s 293.28 Deg N/A
2022-01-16 01:00 N/A 48.71 µg/m3 6 µg/m3 9.78 °C N/A 1,010.86 mbar 0.44 m/s 309.88 Deg N/A
2022-01-15 17:00 N/A 78.54 µg/m3 3.49 µg/m3 13.56 °C N/A 1,010.44 mbar 1.63 m/s 160.67 Deg N/A
2022-01-15 09:00 N/A 44.71 µg/m3 2.81 µg/m3 7.87 °C N/A 1,012.13 mbar 0.44 m/s 298.31 Deg N/A
2022-01-15 01:00 N/A 57.6 µg/m3 8.33 µg/m3 9.31 °C N/A 1,014.60 mbar 0.55 m/s 268.27 Deg N/A
2022-01-14 17:00 N/A 75.92 µg/m3 4.67 µg/m3 12.36 °C N/A 1,015.28 mbar 2.59 m/s 192.47 Deg N/A
2022-01-14 09:00 N/A 78.76 µg/m3 4.2 µg/m3 11.41 °C N/A 1,015.70 mbar 3.19 m/s 269.2 Deg N/A
2022-01-14 01:00 N/A 76.99 µg/m3 5.04 µg/m3 11.83 °C N/A 1,015.39 mbar 3 m/s 262.99 Deg N/A
2022-01-13 17:00 N/A 66.54 µg/m3 5.58 µg/m3 12.4 °C N/A 1,012.92 mbar 3.67 m/s 244.02 Deg N/A
2022-01-13 09:00 N/A 48.79 µg/m3 1.22 µg/m3 10.21 °C N/A 1,010.56 mbar 1.24 m/s 260.71 Deg N/A
2022-01-13 01:00 N/A 52.24 µg/m3 5.39 µg/m3 10.68 °C N/A 1,008.65 mbar 0.87 m/s 231.72 Deg N/A
2022-01-12 17:00 N/A 49.83 µg/m3 6.99 µg/m3 13.9 °C N/A 1,005.07 mbar 1.58 m/s 87.42 Deg N/A
2022-01-12 09:00 N/A 30.29 µg/m3 4.04 µg/m3 10.41 °C N/A 1,002.35 mbar 0.44 m/s 322.74 Deg N/A
2022-01-12 01:00 N/A 59.24 µg/m3 3.96 µg/m3 12.33 °C N/A 999.51 mbar 1.3 m/s 247.36 Deg N/A
2022-01-11 17:00 N/A 65.43 µg/m3 2.79 µg/m3 13.56 °C N/A 995.46 mbar 2.64 m/s 127.03 Deg N/A
2022-01-11 09:00 N/A 67.12 µg/m3 1.92 µg/m3 10.48 °C N/A 991.86 mbar 1.54 m/s 289.29 Deg N/A
2022-01-11 01:00 N/A 75.23 µg/m3 0.97 µg/m3 10.78 °C N/A 989.44 mbar 2.13 m/s 288.37 Deg N/A
2022-01-10 17:00 N/A 74.99 µg/m3 1.98 µg/m3 11.86 °C N/A 986.86 mbar 2.97 m/s 319.46 Deg N/A
2022-01-10 09:00 N/A 77.93 µg/m3 0.33 µg/m3 9.62 °C N/A 989.60 mbar 1.99 m/s 326.95 Deg N/A
2022-01-10 01:00 N/A 82.3 µg/m3 2.53 µg/m3 12.39 °C N/A 994.76 mbar 2.63 m/s 312.07 Deg N/A
2022-01-09 17:00 N/A 75.81 µg/m3 2.67 µg/m3 14.16 °C N/A 997.69 mbar 2.58 m/s 319.74 Deg N/A
2022-01-09 09:00 N/A 75.35 µg/m3 0.27 µg/m3 11.54 °C N/A 998.97 mbar 2.12 m/s 295.54 Deg N/A
2022-01-09 01:00 N/A 72.95 µg/m3 0.7 µg/m3 11.92 °C N/A 998.60 mbar 2.27 m/s 221.23 Deg N/A
2022-01-08 17:00 N/A 70.89 µg/m3 2.57 µg/m3 13.69 °C N/A 997.74 mbar 2.8 m/s 259.58 Deg N/A
2022-01-08 09:00 N/A 67.94 µg/m3 1.64 µg/m3 12.73 °C N/A 998.26 mbar 2.05 m/s 325.2 Deg N/A
2022-01-08 01:00 N/A 65.89 µg/m3 1.76 µg/m3 12.46 °C N/A 998.46 mbar 1.82 m/s 223.57 Deg N/A
2022-01-07 17:00 N/A 66.16 µg/m3 2.16 µg/m3 11.92 °C N/A 997.93 mbar 1.79 m/s 272.8 Deg N/A
2022-01-07 09:00 N/A 62.61 µg/m3 2.82 µg/m3 12.49 °C N/A 997.93 mbar 1.44 m/s 244 Deg N/A
2022-01-07 01:00 N/A 71.47 µg/m3 4.15 µg/m3 13.61 °C N/A 998.08 mbar 2.12 m/s 84.01 Deg N/A
2022-01-06 17:00 N/A 62.29 µg/m3 7.9 µg/m3 15.36 °C N/A 997.64 mbar 1.44 m/s 171.41 Deg N/A
2022-01-06 09:00 N/A 33.33 µg/m3 5.57 µg/m3 11.8 °C N/A 999.45 mbar 0.37 m/s 259.73 Deg N/A
2022-01-06 01:00 N/A 64.86 µg/m3 6.05 µg/m3 13.84 °C N/A 1,000.25 mbar 1.1 m/s 297.08 Deg N/A
2022-01-05 17:00 N/A 71.85 µg/m3 5.68 µg/m3 17.2 °C N/A 1,000.29 mbar 3.35 m/s 269.78 Deg N/A
2022-01-05 09:00 N/A 72.39 µg/m3 3.57 µg/m3 14.87 °C N/A 1,002.34 mbar 2.63 m/s 257.87 Deg N/A
2022-01-05 01:00 N/A 75.11 µg/m3 8.46 µg/m3 14.3 °C N/A 1,005.44 mbar 1.2 m/s 248.34 Deg N/A
2022-01-04 17:00 N/A 69.02 µg/m3 10.49 µg/m3 15.73 °C N/A 1,008.04 mbar 2.01 m/s 282.56 Deg N/A
2022-01-04 09:00 N/A 65.67 µg/m3 1.76 µg/m3 13.49 °C N/A 1,009.61 mbar 1.23 m/s 307.03 Deg N/A
2022-01-04 01:00 N/A 67.38 µg/m3 2.59 µg/m3 13.7 °C N/A 1,010.49 mbar 1.59 m/s 323 Deg N/A
2022-01-03 17:00 N/A 62.42 µg/m3 3.49 µg/m3 14.65 °C N/A 1,011.40 mbar 2.04 m/s 331.32 Deg N/A
2022-01-03 09:00 N/A 60.33 µg/m3 2 µg/m3 13.35 °C N/A 1,012.33 mbar 1.32 m/s 314.64 Deg N/A
2022-01-03 01:00 N/A 54.19 µg/m3 5.6 µg/m3 13.32 °C 8.74 % 1,014.03 mbar 0.63 m/s 304.38 Deg N/A
2022-01-02 17:00 N/A 63.8 µg/m3 5.03 µg/m3 17.51 °C 16.88 % 1,014.17 mbar 1.05 m/s 271.38 Deg N/A
2022-01-02 09:00 N/A 37.94 µg/m3 2.66 µg/m3 12.43 °C 0 % 1,013.78 mbar 0.6 m/s 309.58 Deg N/A
2022-01-02 01:00 N/A 52.94 µg/m3 7.47 µg/m3 14.25 °C 9.62 % 1,012.95 mbar 1.83 m/s 277.6 Deg N/A
2022-01-01 17:00 N/A 64.6 µg/m3 4.96 µg/m3 16.02 °C 86.11 % 1,012.52 mbar 1.86 m/s 330.08 Deg N/A
2022-01-01 09:00 N/A 58.83 µg/m3 3.11 µg/m3 13.82 °C 45.74 % 1,013.19 mbar 0.88 m/s 321.01 Deg N/A
2022-01-01 01:00 N/A 49.38 µg/m3 7.83 µg/m3 12.85 °C 100 % 1,013.86 mbar 0.49 m/s 308.28 Deg N/A
2021-12-31 17:00 N/A 70.54 µg/m3 5.45 µg/m3 16.97 °C 98.61 % 1,012.10 mbar 1.29 m/s 185.76 Deg N/A
2021-12-31 09:00 N/A 24.8 µg/m3 4.74 µg/m3 11.66 °C 100 % 1,009.93 mbar 0.46 m/s 292.79 Deg N/A
2021-12-31 01:00 N/A 21.14 µg/m3 8.49 µg/m3 13.73 °C 99.99 % 1,006.99 mbar 0.5 m/s 248.24 Deg N/A
2021-12-30 17:00 N/A 62.5 µg/m3 7.56 µg/m3 16.84 °C 99.96 % 1,003.78 mbar 2.32 m/s 98.23 Deg N/A
2021-12-30 09:00 N/A 59.78 µg/m3 5.68 µg/m3 15.36 °C 100 % 1,001.96 mbar 1.8 m/s 315 Deg N/A
2021-12-30 01:00 N/A 72.19 µg/m3 8.02 µg/m3 15.84 °C 99.61 % 1,001.47 mbar 2.41 m/s 319.63 Deg N/A
2021-12-29 17:00 N/A 71.78 µg/m3 10.21 µg/m3 16.56 °C 95.1 % 1,001.56 mbar 2.59 m/s 323.88 Deg N/A
2021-12-29 09:00 N/A 68.38 µg/m3 6.69 µg/m3 15.38 °C 98.81 % 1,001.97 mbar 1.84 m/s 324.81 Deg N/A
2021-12-29 01:00 N/A 73.24 µg/m3 7.55 µg/m3 15.33 °C 92.49 % 1,001.89 mbar 1.82 m/s 320.68 Deg N/A
2021-12-28 17:00 N/A 70.79 µg/m3 8.47 µg/m3 16.9 °C 78.47 % 1,000.59 mbar 2.33 m/s 321.04 Deg N/A
2021-12-28 09:00 N/A 63.39 µg/m3 7.02 µg/m3 15.82 °C 88.36 % 1,000.25 mbar 2.39 m/s 308.36 Deg N/A
2021-12-28 01:00 N/A 70.14 µg/m3 6.56 µg/m3 15.58 °C 91.49 % 1,002.37 mbar 1.66 m/s 296.77 Deg N/A
2021-12-27 17:00 N/A 65.86 µg/m3 6.13 µg/m3 17.27 °C 75.17 % 1,002.07 mbar 1.48 m/s 328.69 Deg N/A
2021-12-27 09:00 N/A 50.61 µg/m3 4.47 µg/m3 15.41 °C 84.96 % 1,001.01 mbar 0.73 m/s 279.73 Deg N/A
2021-12-27 01:00 N/A 65.77 µg/m3 5.16 µg/m3 16.1 °C 84.36 % 1,002.14 mbar 1.72 m/s 238.72 Deg N/A
2021-12-26 17:00 N/A 65.4 µg/m3 6.56 µg/m3 18.51 °C 57.98 % 1,002.38 mbar 2.57 m/s 254.82 Deg N/A
2021-12-26 09:00 N/A 62.99 µg/m3 5.67 µg/m3 16.17 °C 77.38 % 1,003.12 mbar 2.31 m/s 259.64 Deg N/A
2021-12-26 01:00 N/A 65.42 µg/m3 8.64 µg/m3 15.78 °C 86.48 % 1,004.03 mbar 1.77 m/s 239.61 Deg N/A
2021-12-25 17:00 N/A 75.33 µg/m3 8.54 µg/m3 17.61 °C 79.78 % 1,005.31 mbar 2.66 m/s 236.13 Deg N/A
2021-12-25 09:00 N/A 75.98 µg/m3 5.14 µg/m3 15.25 °C 90.61 % 1,007.49 mbar 1.46 m/s 225.57 Deg N/A

It is to be noted that the data is provisional and subject to quality assurance procedures. For validated data kindly refer your request to contact.air@era.org.mt